Time;durP1;ratioP1;P1;durP2;ratioP2;P2;SDS_P1;SDS_P2;PMS_P1;PMS_P2;Temp;Humidity;BMP_temperature;BMP_pressure;BME280_temperature;BME280_humidity;BME280_pressure;Samples;Min_cycle;Max_cycle;Signal;HPM_P1;HPM_P2
2023/08/22 00:02:04;;;;;;;6.70;6.10;;;25.50;99.90;;;;;;10473198;28;20239;-78
2023/08/22 00:07:06;;;;;;;6.40;5.90;;;25.50;99.90;;;;;;10474118;28;20207;-77
2023/08/22 00:12:10;;;;;;;8.37;7.10;;;25.50;99.90;;;;;;10473219;28;20221;-78
2023/08/22 00:17:12;;;;;;;6.33;5.93;;;25.50;99.90;;;;;;10473271;28;20942;-78
2023/08/22 00:22:14;;;;;;;7.13;6.53;;;25.40;99.90;;;;;;10473407;28;20348;-78
2023/08/22 00:27:17;;;;;;;7.27;6.57;;;25.30;99.90;;;;;;10472520;28;20198;-78
2023/08/22 00:32:19;;;;;;;7.13;6.53;;;25.30;99.90;;;;;;10470583;28;20308;-77
2023/08/22 00:37:21;;;;;;;7.63;6.20;;;25.30;99.90;;;;;;10472065;28;20853;-77
2023/08/22 00:42:25;;;;;;;7.47;6.77;;;25.30;99.90;;;;;;10471297;28;20274;-78
2023/08/22 00:47:27;;;;;;;7.20;6.60;;;25.20;99.90;;;;;;10472003;28;20211;-78
2023/08/22 00:52:29;;;;;;;7.17;6.67;;;25.20;99.90;;;;;;10454727;28;20201;-78
2023/08/22 00:57:33;;;;;;;7.13;6.73;;;25.20;99.90;;;;;;10472056;28;20205;-77
2023/08/22 01:02:35;;;;;;;7.00;6.37;;;25.10;99.90;;;;;;10451080;28;20209;-77
2023/08/22 01:07:46;;;;;;;6.50;5.90;;;25.10;99.90;;;;;;10454094;28;20217;-78
2023/08/22 01:12:56;;;;;;;7.07;6.33;;;25.10;99.90;;;;;;10470937;28;21082;-78
2023/08/22 01:18:01;;;;;;;6.90;6.07;;;25.00;99.90;;;;;;10471497;28;20232;-78
2023/08/22 01:23:04;;;;;;;6.37;5.80;;;25.00;99.90;;;;;;10453183;28;20204;-78
2023/08/22 01:28:11;;;;;;;6.87;6.37;;;25.00;99.90;;;;;;10469784;28;20225;-78
2023/08/22 01:33:19;;;;;;;6.93;6.43;;;25.00;99.90;;;;;;10453213;28;20224;-77
2023/08/22 01:38:25;;;;;;;6.00;5.60;;;25.00;99.90;;;;;;10454169;28;20251;-78
2023/08/22 01:43:27;;;;;;;6.80;6.20;;;25.00;99.90;;;;;;10476635;28;20216;-78
2023/08/22 01:48:30;;;;;;;6.63;5.97;;;24.90;99.90;;;;;;10479199;28;20722;-78
2023/08/22 01:53:33;;;;;;;6.93;6.37;;;24.90;99.90;;;;;;10466600;28;20225;-78
2023/08/22 01:58:36;;;;;;;6.97;6.43;;;24.90;99.90;;;;;;10460965;28;20229;-78
2023/08/22 02:03:39;;;;;;;6.90;6.33;;;24.90;99.90;;;;;;10476949;28;20194;-77
2023/08/22 02:08:42;;;;;;;6.10;5.60;;;24.90;99.90;;;;;;10477350;28;20228;-78
2023/08/22 02:13:44;;;;;;;6.57;6.07;;;24.80;99.90;;;;;;10476484;28;20306;-77
2023/08/22 02:18:46;;;;;;;6.27;5.67;;;24.80;99.90;;;;;;10476915;28;21217;-78
2023/08/22 02:23:50;;;;;;;6.90;6.40;;;24.80;99.90;;;;;;10476692;28;20210;-79
2023/08/22 02:28:53;;;;;;;5.93;5.50;;;24.70;99.90;;;;;;10477731;28;21293;-77
2023/08/22 02:33:55;;;;;;;6.10;5.70;;;24.70;99.90;;;;;;10459539;28;20740;-78
2023/08/22 02:38:59;;;;;;;6.10;5.50;;;24.60;99.90;;;;;;10442299;28;20220;-77
2023/08/22 02:44:02;;;;;;;7.30;6.60;;;24.60;99.90;;;;;;10476553;28;20332;-78
2023/08/22 02:49:04;;;;;;;6.63;6.13;;;24.60;99.90;;;;;;10477149;28;20221;-79
2023/08/22 02:54:08;;;;;;;6.63;6.13;;;24.50;99.90;;;;;;10474386;28;20308;-78
2023/08/22 02:59:10;;;;;;;16.37;8.23;;;24.50;99.90;;;;;;10476641;28;20228;-78
2023/08/22 03:04:12;;;;;;;6.87;6.37;;;24.50;99.90;;;;;;10475695;28;21049;-78
2023/08/22 03:09:16;;;;;;;6.37;5.87;;;24.40;99.90;;;;;;10475335;28;20225;-77
2023/08/22 03:14:18;;;;;;;6.10;5.70;;;24.40;99.90;;;;;;10475379;28;20308;-77
2023/08/22 03:19:20;;;;;;;7.10;6.50;;;24.40;99.90;;;;;;10475815;28;21229;-77
2023/08/22 03:24:26;;;;;;;6.47;5.90;;;24.40;99.90;;;;;;10472360;28;20213;-79
2023/08/22 03:29:29;;;;;;;6.70;6.10;;;24.30;99.90;;;;;;10475143;28;20298;-77
2023/08/22 03:34:33;;;;;;;7.00;6.40;;;24.30;99.90;;;;;;10456666;28;20302;-78
2023/08/22 03:39:37;;;;;;;7.50;6.70;;;24.30;99.90;;;;;;10473928;28;20229;-78
2023/08/22 03:44:39;;;;;;;6.90;6.30;;;24.30;99.90;;;;;;10456473;28;20201;-77
2023/08/22 03:49:41;;;;;;;6.60;6.00;;;24.30;99.90;;;;;;10473678;28;20221;-78
2023/08/22 03:54:45;;;;;;;7.50;6.90;;;24.30;99.90;;;;;;10471006;28;20481;-78
2023/08/22 03:59:48;;;;;;;6.87;6.30;;;24.20;99.90;;;;;;10473405;28;20326;-77
2023/08/22 04:04:51;;;;;;;8.10;6.77;;;24.20;99.90;;;;;;10466334;28;20204;-78
2023/08/22 04:09:56;;;;;;;6.77;6.27;;;24.20;99.90;;;;;;10454831;28;20225;-79
2023/08/22 04:14:59;;;;;;;6.90;6.40;;;24.20;99.90;;;;;;10471394;28;20805;-75
2023/08/22 04:20:01;;;;;;;7.17;6.57;;;24.10;99.90;;;;;;10472572;28;20297;-79
2023/08/22 04:25:06;;;;;;;7.00;6.50;;;24.10;99.90;;;;;;10470481;28;20208;-78
2023/08/22 04:30:09;;;;;;;7.57;6.93;;;24.00;99.90;;;;;;10472103;28;20213;-78
2023/08/22 04:35:11;;;;;;;7.13;6.60;;;24.00;99.90;;;;;;10438309;28;20232;-78
2023/08/22 04:40:18;;;;;;;9.43;7.03;;;24.00;99.90;;;;;;10472065;28;20233;-77
2023/08/22 04:45:36;;;;;;;7.20;6.63;;;24.00;99.90;;;;;;10451318;28;20200;-78
2023/08/22 04:50:40;;;;;;;8.30;7.50;;;24.00;99.90;;;;;;10468709;28;21526;-78
2023/08/22 04:55:44;;;;;;;8.43;7.70;;;24.00;99.90;;;;;;10455235;28;20731;-78
2023/08/22 05:00:47;;;;;;;9.33;7.57;;;24.00;99.90;;;;;;10469963;28;20240;-78
2023/08/22 05:05:49;;;;;;;11.97;8.37;;;24.00;99.90;;;;;;10452539;22;20326;-83
2023/08/22 05:10:53;;;;;;;8.23;7.60;;;24.00;99.90;;;;;;10413670;28;20203;-83
2023/08/22 05:15:55;;;;;;;8.93;8.23;;;24.00;99.90;;;;;;10374254;28;20285;-82
2023/08/22 05:20:58;;;;;;;8.27;7.47;;;24.00;99.90;;;;;;10373272;28;20207;-83
2023/08/22 05:26:02;;;;;;;8.83;7.93;;;24.10;99.90;;;;;;10373938;28;20251;-82
2023/08/22 05:31:04;;;;;;;9.07;8.10;;;24.10;99.90;;;;;;10369049;28;20211;-82
2023/08/22 05:36:11;;;;;;;10.87;8.53;;;24.10;99.90;;;;;;10385280;28;20314;-83
2023/08/22 05:41:16;;;;;;;9.27;8.47;;;24.10;99.90;;;;;;10369186;28;20214;-84
2023/08/22 05:46:18;;;;;;;8.93;8.03;;;24.20;99.90;;;;;;10362925;28;20218;-82
2023/08/22 05:51:22;;;;;;;8.20;7.60;;;24.20;99.90;;;;;;10351645;28;20709;-82
2023/08/22 05:56:26;;;;;;;8.27;7.67;;;24.20;99.90;;;;;;10363731;28;21239;-81
2023/08/22 06:01:28;;;;;;;8.97;8.30;;;24.20;99.90;;;;;;10366872;28;20222;-81
2023/08/22 06:06:31;;;;;;;9.67;8.23;;;24.20;99.90;;;;;;10367255;28;20292;-81
2023/08/22 06:11:34;;;;;;;8.77;7.97;;;24.30;99.90;;;;;;10367414;28;20214;-81
2023/08/22 06:16:37;;;;;;;8.67;7.93;;;24.30;99.90;;;;;;10364295;28;20322;-82
2023/08/22 06:21:39;;;;;;;8.20;7.50;;;24.30;99.90;;;;;;10365503;28;20214;-82
2023/08/22 06:26:43;;;;;;;8.77;8.07;;;24.40;99.90;;;;;;10364529;28;20281;-82
2023/08/22 06:31:46;;;;;;;8.90;6.93;;;24.40;99.90;;;;;;10365395;28;20207;-82
2023/08/22 06:36:48;;;;;;;8.57;7.70;;;24.50;99.90;;;;;;10366491;28;20231;-82
2023/08/22 06:41:52;;;;;;;9.50;8.53;;;24.60;99.90;;;;;;10373912;28;20207;-82
2023/08/22 06:46:59;;;;;;;8.47;7.40;;;24.60;99.90;;;;;;10365677;28;20246;-82
2023/08/22 06:52:02;;;;;;;8.00;7.30;;;24.70;99.90;;;;;;10344326;28;20207;-83
2023/08/22 06:57:05;;;;;;;8.43;7.53;;;24.70;99.90;;;;;;10367285;28;20839;-82
2023/08/22 07:02:07;;;;;;;12.00;8.40;;;24.80;99.90;;;;;;10367681;28;20207;-80
2023/08/22 07:07:09;;;;;;;7.97;7.37;;;24.80;99.90;;;;;;10372172;28;20366;-81
2023/08/22 07:12:13;;;;;;;6.90;6.40;;;24.90;99.90;;;;;;10371342;28;20215;-82
2023/08/22 07:17:16;;;;;;;7.37;6.77;;;25.00;99.90;;;;;;10363840;28;20251;-82
2023/08/22 07:22:18;;;;;;;6.73;6.00;;;25.00;99.90;;;;;;10365418;28;20223;-82
2023/08/22 07:27:22;;;;;;;7.50;6.90;;;25.10;99.90;;;;;;10365169;28;20233;-82
2023/08/22 07:32:24;;;;;;;7.70;6.80;;;25.20;99.90;;;;;;10365932;28;20265;-83
2023/08/22 07:37:27;;;;;;;7.63;7.03;;;25.30;99.90;;;;;;10381430;28;20232;-82
2023/08/22 07:42:30;;;;;;;7.37;6.67;;;25.50;99.90;;;;;;10365335;28;20234;-83
2023/08/22 07:47:32;;;;;;;7.73;7.03;;;25.70;99.90;;;;;;10364038;28;20210;-81
2023/08/22 07:52:35;;;;;;;7.37;6.47;;;26.00;99.90;;;;;;10354312;28;20229;-79
2023/08/22 07:57:38;;;;;;;10.73;7.47;;;26.40;99.90;;;;;;10359812;28;20549;-79
2023/08/22 08:02:41;;;;;;;7.20;6.60;;;26.70;99.90;;;;;;10378433;28;20235;-83
2023/08/22 08:07:43;;;;;;;7.70;7.10;;;27.00;99.90;;;;;;10367130;28;20807;-83
2023/08/22 08:12:47;;;;;;;6.33;5.83;;;27.20;99.90;;;;;;10363323;28;20286;-83
2023/08/22 08:17:49;;;;;;;7.33;6.50;;;27.50;99.90;;;;;;10364900;28;20639;-82
2023/08/22 08:22:51;;;;;;;8.27;7.67;;;27.60;99.90;;;;;;10365003;28;20706;-83
2023/08/22 08:27:55;;;;;;;7.53;6.67;;;27.70;99.90;;;;;;10397623;28;20223;-81
2023/08/22 08:32:57;;;;;;;7.10;6.53;;;27.80;99.90;;;;;;10402286;28;20239;-83
2023/08/22 08:37:59;;;;;;;7.07;6.53;;;27.90;99.90;;;;;;10398071;28;20301;-80
2023/08/22 08:43:04;;;;;;;5.17;4.77;;;28.00;99.90;;;;;;10388981;28;20918;-83
2023/08/22 08:48:07;;;;;;;6.73;6.23;;;28.10;99.90;;;;;;10370132;28;20210;-83
2023/08/22 08:53:09;;;;;;;5.73;5.37;;;28.30;99.90;;;;;;10371043;28;20223;-83
2023/08/22 08:58:14;;;;;;;6.77;6.17;;;28.40;99.90;;;;;;10374226;28;20281;-83
2023/08/22 09:03:16;;;;;;;6.63;6.10;;;28.40;99.90;;;;;;10370990;28;20778;-82
2023/08/22 09:08:20;;;;;;;8.23;5.30;;;28.30;99.90;;;;;;10371608;28;20207;-83
2023/08/22 09:13:27;;;;;;;8.10;6.40;;;28.30;99.90;;;;;;10369527;28;20234;-82
2023/08/22 09:18:29;;;;;;;8.07;7.47;;;28.30;99.90;;;;;;10373477;28;20220;-83
2023/08/22 09:23:32;;;;;;;7.00;6.40;;;28.30;99.90;;;;;;10370179;28;20266;-83
2023/08/22 09:28:40;;;;;;;6.97;6.37;;;28.30;99.90;;;;;;10388050;28;20211;-83
2023/08/22 09:33:46;;;;;;;6.20;5.80;;;28.40;99.90;;;;;;10372054;28;20410;-83
2023/08/22 09:38:54;;;;;;;6.00;5.60;;;28.50;99.90;;;;;;10372728;28;20227;-82
2023/08/22 09:43:58;;;;;;;7.70;6.23;;;28.60;99.90;;;;;;10376237;28;20227;-83
2023/08/22 09:49:01;;;;;;;11.03;5.10;;;29.00;99.90;;;;;;10385857;28;20601;-81
2023/08/22 09:54:08;;;;;;;7.13;6.43;;;29.40;99.90;;;;;;10387460;28;20236;-83
2023/08/22 09:59:14;;;;;;;6.70;6.10;;;29.90;99.90;;;;;;10375212;28;20234;-82
2023/08/22 10:04:18;;;;;;;8.73;6.00;;;30.40;99.40;;;;;;10376164;28;20231;-83
2023/08/22 10:09:21;;;;;;;6.07;5.67;;;30.80;99.00;;;;;;10385466;28;20226;-82
2023/08/22 10:14:32;;;;;;;7.03;6.33;;;31.20;99.00;;;;;;10373981;28;20228;-83
2023/08/22 10:19:34;;;;;;;6.17;4.93;;;31.40;98.00;;;;;;10370513;28;21089;-83
2023/08/22 10:24:36;;;;;;;5.40;5.00;;;31.20;97.70;;;;;;10369107;28;20231;-82
2023/08/22 10:29:45;;;;;;;6.83;6.30;;;30.90;98.00;;;;;;10373579;28;20207;-83
2023/08/22 10:35:26;;;;;;;6.30;5.90;;;30.80;98.10;;;;;;10372552;28;20235;-83
2023/08/22 10:40:32;;;;;;;9.43;5.57;;;30.40;98.70;;;;;;10371577;28;20203;-83
2023/08/22 10:45:47;;;;;;;6.50;6.00;;;30.20;98.60;;;;;;10372033;28;20222;-83
2023/08/22 10:50:51;;;;;;;5.93;5.43;;;30.00;98.00;;;;;;10369515;28;20265;-83
2023/08/22 10:55:53;;;;;;;5.93;5.43;;;29.90;98.40;;;;;;10371286;28;21075;-83
2023/08/22 11:00:57;;;;;;;9.70;5.60;;;29.90;98.70;;;;;;10371318;28;20237;-83
2023/08/22 11:06:00;;;;;;;6.03;5.53;;;29.80;98.40;;;;;;10468802;22;20240;-78
2023/08/22 11:11:02;;;;;;;6.00;5.50;;;29.80;98.90;;;;;;10490770;28;20201;-79
2023/08/22 11:16:11;;;;;;;5.97;5.37;;;29.80;98.70;;;;;;10489830;28;20236;-79
2023/08/22 11:21:13;;;;;;;4.50;4.10;;;29.80;98.40;;;;;;10490531;28;20210;-78
2023/08/22 11:26:22;;;;;;;11.70;6.07;;;29.90;98.40;;;;;;10490857;28;20232;-78
2023/08/22 11:31:26;;;;;;;6.27;5.73;;;29.90;98.10;;;;;;10491816;28;20229;-78
2023/08/22 11:36:28;;;;;;;6.20;5.60;;;29.90;98.30;;;;;;10476920;28;20221;-78
2023/08/22 11:41:30;;;;;;;6.80;6.10;;;30.10;98.10;;;;;;10481967;28;20209;-78
2023/08/22 11:46:38;;;;;;;6.07;5.47;;;30.30;98.00;;;;;;10481553;28;20247;-77
2023/08/22 11:51:59;;;;;;;5.53;5.13;;;30.40;97.20;;;;;;10480506;28;20209;-77
2023/08/22 11:57:01;;;;;;;5.97;5.43;;;30.30;97.10;;;;;;10463382;28;20236;-78
2023/08/22 12:02:05;;;;;;;6.23;5.60;;;30.30;96.70;;;;;;10461406;28;20288;-78
2023/08/22 12:07:07;;;;;;;6.57;5.67;;;30.20;96.40;;;;;;10480147;28;20233;-77
2023/08/22 12:12:11;;;;;;;5.67;5.27;;;30.20;96.60;;;;;;10481764;28;20202;-77
2023/08/22 12:17:14;;;;;;;5.43;5.03;;;30.20;96.50;;;;;;10481456;28;20291;-79
2023/08/22 12:22:16;;;;;;;6.53;5.87;;;30.10;96.00;;;;;;10481884;28;20210;-77
2023/08/22 12:27:18;;;;;;;11.33;6.03;;;30.10;96.30;;;;;;10478200;28;20221;-78
2023/08/22 12:32:22;;;;;;;5.23;4.83;;;30.00;95.90;;;;;;10479213;28;20259;-79
2023/08/22 12:37:25;;;;;;;5.70;4.87;;;30.10;96.10;;;;;;10479674;28;20225;-77
2023/08/22 12:42:27;;;;;;;4.67;4.37;;;30.10;96.00;;;;;;10478224;28;20216;-77
2023/08/22 12:47:30;;;;;;;5.23;4.83;;;30.20;96.70;;;;;;10480728;28;20196;-78
2023/08/22 12:52:32;;;;;;;5.23;4.73;;;30.20;96.70;;;;;;10479701;28;20278;-79
2023/08/22 12:57:35;;;;;;;5.20;4.80;;;30.20;97.10;;;;;;10480856;28;20306;-78
2023/08/22 13:02:40;;;;;;;4.80;4.00;;;30.00;96.80;;;;;;10466977;28;20292;-78
2023/08/22 13:07:43;;;;;;;5.53;4.97;;;29.90;97.20;;;;;;10483409;28;20204;-77
2023/08/22 13:12:45;;;;;;;4.90;4.53;;;29.70;97.40;;;;;;10484040;28;20217;-78
2023/08/22 13:17:48;;;;;;;5.50;5.00;;;29.70;97.90;;;;;;10486401;28;20221;-79
2023/08/22 13:22:50;;;;;;;5.20;4.90;;;29.70;97.80;;;;;;10485423;28;20251;-78
2023/08/22 13:27:52;;;;;;;4.37;4.00;;;29.70;97.80;;;;;;10484531;28;20197;-78
2023/08/22 13:32:56;;;;;;;5.43;4.87;;;29.90;97.60;;;;;;10485431;28;20221;-78
2023/08/22 13:37:58;;;;;;;6.10;4.93;;;29.90;97.10;;;;;;10485702;28;20229;-77
2023/08/22 13:43:00;;;;;;;4.70;4.30;;;29.90;96.90;;;;;;10474902;28;20225;-79
2023/08/22 13:48:04;;;;;;;5.57;5.00;;;29.90;97.20;;;;;;10494940;28;20225;-78
2023/08/22 13:53:06;;;;;;;5.30;4.90;;;29.90;97.10;;;;;;10494628;28;20351;-79
2023/08/22 13:58:08;;;;;;;5.60;5.10;;;29.90;97.00;;;;;;10470362;28;20727;-78
2023/08/22 14:03:11;;;;;;;3.90;3.70;;;29.90;96.90;;;;;;10489929;28;20236;-79
2023/08/22 14:08:13;;;;;;;5.90;5.00;;;29.90;98.10;;;;;;10491149;28;20204;-77
2023/08/22 14:13:15;;;;;;;5.47;4.97;;;29.80;97.80;;;;;;10488953;28;21079;-79
2023/08/22 14:18:19;;;;;;;6.03;5.20;;;29.70;97.90;;;;;;10491938;28;20225;-78
2023/08/22 14:23:21;;;;;;;4.43;4.13;;;29.70;98.20;;;;;;10489413;28;20223;-78
2023/08/22 14:28:23;;;;;;;4.93;4.40;;;29.60;97.80;;;;;;10489609;28;20202;-77
2023/08/22 14:33:27;;;;;;;5.20;4.80;;;29.70;97.50;;;;;;10486802;28;20229;-78
2023/08/22 14:38:29;;;;;;;4.60;4.20;;;29.70;97.20;;;;;;10488383;28;20309;-77
2023/08/22 14:43:31;;;;;;;9.20;4.00;;;29.70;97.40;;;;;;10487940;28;20273;-77
2023/08/22 14:48:35;;;;;;;5.00;4.60;;;29.60;97.50;;;;;;10487322;28;20236;-78
2023/08/22 14:53:37;;;;;;;4.47;3.97;;;29.60;97.60;;;;;;10487162;28;20265;-78
2023/08/22 14:58:39;;;;;;;5.17;4.77;;;29.60;97.40;;;;;;10461265;28;20229;-78
2023/08/22 15:03:43;;;;;;;4.83;4.40;;;29.60;97.30;;;;;;10485457;28;20232;-79
2023/08/22 15:08:45;;;;;;;6.07;5.40;;;29.60;97.70;;;;;;10485635;28;20196;-78
2023/08/22 15:13:47;;;;;;;5.00;4.60;;;29.70;97.50;;;;;;10469047;28;20693;-79
2023/08/22 15:18:51;;;;;;;4.93;4.13;;;29.70;97.40;;;;;;10488990;28;20229;-78
2023/08/22 15:23:53;;;;;;;5.60;5.20;;;29.70;97.60;;;;;;10463962;28;20229;-77
2023/08/22 15:28:55;;;;;;;6.83;5.17;;;29.70;97.40;;;;;;10469484;28;20323;-79
2023/08/22 15:33:59;;;;;;;4.20;3.90;;;29.70;97.60;;;;;;10486895;28;20232;-78
2023/08/22 15:39:01;;;;;;;7.17;4.57;;;29.80;97.70;;;;;;10488995;28;20229;-79
2023/08/22 15:44:03;;;;;;;4.70;4.17;;;30.10;96.70;;;;;;10487298;28;20220;-79
2023/08/22 15:49:06;;;;;;;6.10;4.53;;;30.30;96.60;;;;;;10474282;28;20201;-79
2023/08/22 15:54:09;;;;;;;3.93;3.73;;;30.30;96.30;;;;;;10490370;28;20225;-78
2023/08/22 15:59:11;;;;;;;4.80;4.40;;;30.30;96.20;;;;;;10491233;28;20247;-77
2023/08/22 16:04:14;;;;;;;4.57;4.20;;;30.20;96.20;;;;;;10474419;28;21533;-79
2023/08/22 16:09:17;;;;;;;4.90;4.50;;;30.10;96.20;;;;;;10469874;28;20201;-80
2023/08/22 16:14:19;;;;;;;4.97;4.67;;;30.00;96.80;;;;;;10491494;28;20251;-79
2023/08/22 16:19:22;;;;;;;5.00;4.70;;;29.90;96.80;;;;;;10493021;28;20590;-80
2023/08/22 16:24:24;;;;;;;6.90;4.67;;;29.80;97.10;;;;;;10490844;28;20216;-79
2023/08/22 16:29:26;;;;;;;8.03;4.87;;;29.70;96.70;;;;;;10490617;28;20209;-78
2023/08/22 16:34:30;;;;;;;5.07;4.60;;;29.70;96.80;;;;;;10472229;28;20294;-80
2023/08/22 16:39:32;;;;;;;4.20;3.63;;;29.60;96.70;;;;;;10485093;28;20260;-80
2023/08/22 16:44:37;;;;;;;5.00;4.60;;;29.60;96.80;;;;;;10483318;28;20224;-80
2023/08/22 16:49:41;;;;;;;4.00;3.70;;;29.50;96.60;;;;;;10480050;28;20205;-80
2023/08/22 16:54:43;;;;;;;7.13;4.80;;;29.50;96.90;;;;;;10465302;28;20245;-79
2023/08/22 16:59:45;;;;;;;4.20;3.90;;;29.40;97.20;;;;;;10465198;28;20239;-79
2023/08/22 17:04:48;;;;;;;3.97;3.63;;;29.40;96.90;;;;;;10492644;22;20245;-81
2023/08/22 17:09:50;;;;;;;4.97;4.57;;;29.40;96.80;;;;;;10461252;28;20711;-80
2023/08/22 17:14:52;;;;;;;4.30;4.00;;;29.30;96.80;;;;;;10468993;28;20249;-81
2023/08/22 17:19:56;;;;;;;6.93;4.57;;;29.20;97.10;;;;;;10470836;28;20222;-82
2023/08/22 17:24:58;;;;;;;4.60;4.20;;;29.10;96.60;;;;;;10470683;28;20261;-82
2023/08/22 17:30:00;;;;;;;6.20;4.13;;;29.00;96.90;;;;;;10472099;28;20298;-82
2023/08/22 17:35:04;;;;;;;5.23;4.83;;;29.00;97.10;;;;;;10464733;28;20228;-81
2023/08/22 17:40:08;;;;;;;4.40;4.00;;;28.90;97.80;;;;;;10473071;28;20257;-81
2023/08/22 17:45:10;;;;;;;4.87;4.47;;;28.80;97.60;;;;;;10469499;28;20222;-80
2023/08/22 17:50:14;;;;;;;6.80;4.90;;;28.60;98.70;;;;;;10470381;28;20661;-82
2023/08/22 17:55:16;;;;;;;5.10;4.60;;;28.50;98.60;;;;;;10469569;28;20229;-80
2023/08/22 18:00:22;;;;;;;5.30;4.80;;;28.40;99.30;;;;;;10468200;28;20713;-80
2023/08/22 18:05:25;;;;;;;4.67;4.33;;;28.40;99.10;;;;;;10463833;28;20225;-82
2023/08/22 18:10:28;;;;;;;4.63;4.27;;;28.30;99.90;;;;;;10467747;28;20251;-82
2023/08/22 18:15:30;;;;;;;5.00;4.70;;;28.30;99.70;;;;;;10445158;28;20224;-81
2023/08/22 18:20:33;;;;;;;4.80;4.40;;;28.20;99.90;;;;;;10467704;28;20217;-81
2023/08/22 18:25:35;;;;;;;5.50;5.00;;;28.20;99.90;;;;;;10460915;28;20236;-81
2023/08/22 18:30:38;;;;;;;4.83;4.43;;;28.10;99.80;;;;;;10440399;28;20201;-81
2023/08/22 18:35:44;;;;;;;4.87;4.47;;;28.10;99.10;;;;;;10459768;28;20291;-82
2023/08/22 18:40:46;;;;;;;4.13;3.83;;;28.10;98.50;;;;;;10436299;28;20234;-81
2023/08/22 18:45:49;;;;;;;4.50;4.00;;;28.10;99.00;;;;;;10458911;28;20250;-81
2023/08/22 18:50:59;;;;;;;5.30;4.50;;;28.10;99.20;;;;;;10435142;28;20240;-82
2023/08/22 18:56:01;;;;;;;4.90;4.60;;;28.00;99.90;;;;;;10461002;28;20283;-82
2023/08/22 19:01:04;;;;;;;4.97;4.57;;;27.90;99.90;;;;;;10451703;28;20213;-82
2023/08/22 19:06:08;;;;;;;4.30;4.00;;;27.80;99.90;;;;;;10431198;28;20230;-82
2023/08/22 19:11:10;;;;;;;4.60;4.20;;;27.70;99.90;;;;;;10458274;28;20199;-80
2023/08/22 19:16:12;;;;;;;5.80;5.30;;;27.70;99.90;;;;;;10458844;28;20249;-82
2023/08/22 19:21:16;;;;;;;4.60;4.30;;;27.60;99.90;;;;;;10458407;28;20229;-82
2023/08/22 19:26:18;;;;;;;4.90;4.47;;;27.60;99.90;;;;;;10433347;28;20222;-82
2023/08/22 19:31:20;;;;;;;6.50;6.00;;;27.50;99.90;;;;;;10434305;28;20259;-82
2023/08/22 19:36:23;;;;;;;5.97;5.47;;;27.40;99.90;;;;;;10454955;28;20233;-82
2023/08/22 19:41:25;;;;;;;6.57;6.00;;;27.40;99.90;;;;;;10459103;28;20648;-81
2023/08/22 19:46:27;;;;;;;5.73;5.23;;;27.30;99.90;;;;;;10454780;28;20708;-83
2023/08/22 19:51:31;;;;;;;6.23;5.77;;;27.20;99.90;;;;;;10463662;28;20205;-82
2023/08/22 19:56:33;;;;;;;6.63;5.37;;;27.20;99.90;;;;;;10458014;28;20222;-83
2023/08/22 20:01:35;;;;;;;7.80;5.97;;;27.10;99.90;;;;;;10452863;28;20212;-81
2023/08/22 20:06:39;;;;;;;5.67;5.17;;;27.10;99.90;;;;;;10439369;28;20231;-83
2023/08/22 20:11:42;;;;;;;6.10;5.37;;;27.00;99.90;;;;;;10456890;28;20202;-82
2023/08/22 20:16:44;;;;;;;5.60;5.10;;;27.00;99.90;;;;;;10456902;28;20222;-82
2023/08/22 20:21:47;;;;;;;6.30;5.77;;;27.00;99.90;;;;;;10444441;28;20202;-81
2023/08/22 20:27:00;;;;;;;4.97;4.60;;;27.00;99.90;;;;;;10453294;28;20229;-82
2023/08/22 20:32:03;;;;;;;6.33;4.60;;;26.90;99.90;;;;;;10428800;28;20216;-82
2023/08/22 20:37:06;;;;;;;6.27;5.37;;;26.90;99.90;;;;;;10456999;28;20328;-81
2023/08/22 20:42:08;;;;;;;5.30;4.90;;;26.90;99.90;;;;;;10458681;28;20210;-83
2023/08/22 20:47:10;;;;;;;5.57;5.00;;;26.80;99.90;;;;;;10445616;28;20245;-83
2023/08/22 20:52:14;;;;;;;6.10;4.43;;;26.70;99.90;;;;;;10468729;28;20704;-83
2023/08/22 20:57:16;;;;;;;5.43;4.53;;;26.60;99.90;;;;;;10470644;28;20312;-82
2023/08/22 21:02:18;;;;;;;5.33;4.87;;;26.60;99.90;;;;;;10467649;28;20213;-83
2023/08/22 21:07:21;;;;;;;4.90;4.50;;;26.50;99.90;;;;;;10470450;28;20229;-83
2023/08/22 21:12:24;;;;;;;5.17;4.70;;;26.50;99.90;;;;;;10446163;28;20228;-81
2023/08/22 21:17:26;;;;;;;4.70;4.40;;;26.40;99.90;;;;;;10460582;28;20244;-82
2023/08/22 21:22:29;;;;;;;5.10;4.70;;;26.40;99.90;;;;;;10462000;28;20206;-82
2023/08/22 21:27:31;;;;;;;5.47;4.97;;;26.30;99.90;;;;;;10446855;28;20217;-81
2023/08/22 21:32:33;;;;;;;5.00;4.60;;;26.20;99.90;;;;;;10464882;28;20210;-81
2023/08/22 21:37:37;;;;;;;8.73;5.57;;;26.20;99.90;;;;;;10463050;28;20253;-80
2023/08/22 21:42:39;;;;;;;6.30;5.70;;;26.10;99.90;;;;;;10442382;28;20224;-82
2023/08/22 21:47:42;;;;;;;5.77;5.27;;;26.10;99.90;;;;;;10461832;28;20234;-83
2023/08/22 21:52:45;;;;;;;5.00;4.60;;;26.10;99.90;;;;;;10468466;28;20213;-82
2023/08/22 21:57:47;;;;;;;6.47;4.50;;;26.00;99.90;;;;;;10466514;28;20229;-82
2023/08/22 22:02:49;;;;;;;5.20;4.80;;;26.00;99.90;;;;;;10462150;28;20194;-83
2023/08/22 22:07:53;;;;;;;5.90;4.47;;;25.90;99.90;;;;;;10458055;28;20308;-83
2023/08/22 22:12:55;;;;;;;5.67;4.90;;;25.90;99.90;;;;;;10461599;28;20304;-83
2023/08/22 22:17:57;;;;;;;4.70;4.10;;;25.90;99.90;;;;;;10440454;28;20236;-82
2023/08/22 22:23:00;;;;;;;6.10;4.77;;;25.80;99.90;;;;;;10439696;28;20359;-83
2023/08/22 22:28:02;;;;;;;5.20;4.70;;;25.80;99.90;;;;;;10446426;28;20301;-83
2023/08/22 22:33:05;;;;;;;4.77;4.30;;;25.70;99.90;;;;;;10462552;28;20213;-83
2023/08/22 22:38:08;;;;;;;4.97;4.60;;;25.70;99.90;;;;;;10460808;28;20220;-83
2023/08/22 22:43:10;;;;;;;5.17;4.67;;;25.60;99.90;;;;;;10462247;28;20205;-82
2023/08/22 22:48:13;;;;;;;4.67;4.23;;;25.60;99.90;;;;;;10461016;28;20731;-82
2023/08/22 22:53:16;;;;;;;5.47;4.27;;;25.50;99.90;;;;;;10441325;28;20202;-83
2023/08/22 22:58:18;;;;;;;6.37;4.67;;;25.50;99.90;;;;;;10469285;28;20702;-81
2023/08/22 23:03:22;;;;;;;5.63;4.90;;;25.50;99.90;;;;;;10460909;28;20579;-82
2023/08/22 23:08:25;;;;;;;4.27;3.87;;;25.40;99.90;;;;;;10444185;22;20383;-78
2023/08/22 23:13:27;;;;;;;4.17;3.87;;;25.40;99.90;;;;;;10419464;28;20237;-79
2023/08/22 23:18:29;;;;;;;4.83;4.23;;;25.30;99.90;;;;;;10422065;28;21254;-77
2023/08/22 23:23:33;;;;;;;4.53;4.23;;;25.30;99.90;;;;;;10397954;28;20202;-77
2023/08/22 23:28:35;;;;;;;5.33;4.07;;;25.20;99.90;;;;;;10404697;28;20265;-79
2023/08/22 23:33:37;;;;;;;3.87;3.57;;;25.20;99.90;;;;;;10421096;28;20226;-78
2023/08/22 23:38:40;;;;;;;6.10;4.20;;;25.20;99.90;;;;;;10422455;28;20709;-79
2023/08/22 23:43:42;;;;;;;3.80;3.60;;;25.10;99.90;;;;;;10423081;28;20730;-79
2023/08/22 23:48:44;;;;;;;5.37;4.77;;;25.10;99.90;;;;;;10424506;28;20218;-79
2023/08/22 23:53:48;;;;;;;4.20;3.90;;;25.00;99.90;;;;;;10397550;28;20234;-79
2023/08/22 23:58:50;;;;;;;4.33;3.93;;;25.00;99.90;;;;;;10424965;28;20230;-78
